KTPA/TPA METAR and TAF weather

Enter ICAO airport designator
Station Type Date Time Source
KTPA METAR 2022/01/26 19:53 UTC NOAA

KTPA 261953Z 05007KT 10SM BKN008 OVC012 17/13 A3003 RMK AO2 SLP167 T01670133


Station Type Date Time Source
KTPA Decoded METAR 2022/01/26 19:53 UTC NOAA

TAMPA INTERNATIONAL AIRPORT , FL, United States (KTPA) 27-58N 082-32W 11M
Jan 26, 2022 - 02:53 PM EST / 2022.01.26 1953 UTC
Wind: from the NE (050 degrees) at 8 MPH (7 KT):0
Visibility: 10 mile(s):0
Sky conditions: overcast
Temperature: 62.1 F (16.7 C)
Dew Point: 55.9 F (13.3 C)
Relative Humidity: 80%
Pressure (altimeter): 30.03 in. Hg (1016 hPa)
ob: KTPA 261953Z 05007KT 10SM BKN008 OVC012 17/13 A3003 RMK AO2 SLP167 T01670133
cycle: 20

Station Type Date Time Source
KTPA TAF 2022/01/26 18:42 UTC NOAA

TAF KTPA 261741Z 2618/2724 03007KT P6SM VCSH BKN005 OVC012
TEMPO 2618/2620 2SM BR BKN004
FM262000 03009KT 6SM BR OVC007
FM270400 02010KT 5SM BR OVC007
FM271600 03008KT P6SM BKN007 OVC015
FM272000 03008KT P6SM SCT015 BKN050

Example: see airport list